Hassler — WTEK — position and weather

sailwx.info

Track history (hours):
 
Tides and Currents Weather Stations Pressure Air Temp Water Temp Dewpoint Dewpoint Depression Visibility Wind Speed Wind Dir Waves Ship Positions

Oceanographic research ship Hassler (USA)

Last reported at 2015-Jun-30 02:34 UTC. Time now 2015-Jun-30 03:33 UTC.
Position N 41°08' W 070°51'.

Length 37 m; draft 3.8 m.

Type: . MMSI: 369970091.

Date/timePositionNaut miles runAvg speedWind from/ knotsBaromVisibWave heightAir tempDewpointWater temp
2015-Jun-30 02:34N 41°08' W 070°51'1 0.9
2015-Jun-30 01:33N 41°07' W 070°51'0 0.2
2015-Jun-30 00:34N 41°07' W 070°51'0 0.2
2015-Jun-29 23:34N 41°07' W 070°51'1 0.6
2015-Jun-29 22:34N 41°08' W 070°52'1 0.7
2015-Jun-29 21:34N 41°08' W 070°52'1 0.6
2015-Jun-29 20:33N 41°09' W 070°52'1 0.7
2015-Jun-29 19:34N 41°10' W 070°53'1 1.2
2015-Jun-29 18:30N 41°08' W 070°53'1 1.2
2015-Jun-29 17:33N 41°09' W 070°53'0 0.1
2015-Jun-29 16:33N 41°09' W 070°53'1 0.5
2015-Jun-29 15:33N 41°09' W 070°54'3 3.1
2015-Jun-29 14:33N 41°06' W 070°53'8 8.2
2015-Jun-29 13:33N 41°15' W 070°53'8 8.2
2015-Jun-29 12:32N 41°23' W 070°51'3 1.6
2015-Jun-29 10:27N 41°22' W 070°47'0 0.0
2015-Jun-29 09:33N 41°22' W 070°47'0 0.0
2015-Jun-29 08:33N 41°22' W 070°47'0 0.0
2015-Jun-29 07:30N 41°22' W 070°47'0 0.0
2015-Jun-29 06:21N 41°22' W 070°47'0 0.0
2015-Jun-29 05:18N 41°22' W 070°47'0 0.0
2015-Jun-29 04:21N 41°22' W 070°47'0 0.0
2015-Jun-28 17:12N 41°22' W 070°47'0 0.0
2015-Jun-28 16:33N 41°22' W 070°47'0 0.0
2015-Jun-28 12:30N 41°22' W 070°47'0 0.0
2015-Jun-28 05:06N 41°22' W 070°47'0 0.0
2015-Jun-28 04:33N 41°22' W 070°47'0 0.0
2015-Jun-28 03:33N 41°22' W 070°47'4 3.9
2015-Jun-28 02:34N 41°22' W 070°53'4 3.9
2015-Jun-28 01:33N 41°19' W 070°49'2 2.1
2015-Jun-28 00:33N 41°17' W 070°50'1 0.7
2015-Jun-27 23:33N 41°16' W 070°50'1 1.1
2015-Jun-27 22:33N 41°17' W 070°50'3 2.7
2015-Jun-27 21:34N 41°16' W 070°47'1 1.3
2015-Jun-27 20:33N 41°17' W 070°48'1 1.2
2015-Jun-27 19:33N 41°17' W 070°49'6 5.9
2015-Jun-27 18:34N 41°20' W 070°42'2 1.9
2015-Jun-27 17:33N 41°19' W 070°44'2 1.5
2015-Jun-27 16:33N 41°20' W 070°43'2 2.3
2015-Jun-27 15:33N 41°18' W 070°45'0 0.2
2015-Jun-27 14:33N 41°18' W 070°45'2 2.2
2015-Jun-27 13:33N 41°19' W 070°43'0 0.1
2015-Jun-27 12:33N 41°19' W 070°43'1 1.0
2015-Jun-27 11:33N 41°19' W 070°44'1 1.3
2015-Jun-27 10:34N 41°19' W 070°42'8 7.8
2015-Jun-27 09:33N 41°12' W 070°45'6 5.6
2015-Jun-27 08:33N 41°10' W 070°52'7 6.5
2015-Jun-27 07:33N 41°11' W 070°44'7 7.4
2015-Jun-27 06:34N 41°10' W 070°53'6 6.4
2015-Jun-27 05:33N 41°11' W 070°45'4 3.9
2015-Jun-27 04:33N 41°10' W 070°50'3 2.7
2015-Jun-27 03:33N 41°11' W 070°47'2 1.6
2015-Jun-27 02:33N 41°10' W 070°49'5 5.0
2015-Jun-27 01:33N 41°14' W 070°53'6 5.7
2015-Jun-27 00:33N 41°19' W 070°49'1 1.0
2015-Jun-26 23:33N 41°19' W 070°50'1 1.4
2015-Jun-26 22:33N 41°18' W 070°49'2 1.9
2015-Jun-26 21:34N 41°17' W 070°48'1 1.1
2015-Jun-26 20:34N 41°17' W 070°49'2 2.0
2015-Jun-26 19:33N 41°16' W 070°47'2 2.3
2015-Jun-26 18:31N 41°17' W 070°50'1 0.8
2015-Jun-26 17:33N 41°18' W 070°50'2 2.2
2015-Jun-26 16:34N 41°15' W 070°51'6 1.4
2015-Jun-26 12:33N 41°10' W 070°53'7 7.2
2015-Jun-26 11:33N 41°12' W 070°43'7 6.8
2015-Jun-26 10:33N 41°10' W 070°52'7 6.7
2015-Jun-26 09:33N 41°12' W 070°44'2 2.3
2015-Jun-26 08:33N 41°11' W 070°47'0 0.2
2015-Jun-26 07:33N 41°11' W 070°47'2 2.3
2015-Jun-26 06:33N 41°12' W 070°44'0 0.4
2015-Jun-26 05:33N 41°12' W 070°43'3 2.6
2015-Jun-26 04:33N 41°12' W 070°47'1 1.0
2015-Jun-26 03:33N 41°12' W 070°48'6 6.1
2015-Jun-26 02:33N 41°18' W 070°49'1 1.3
2015-Jun-26 01:34N 41°18' W 070°51'1 1.2
2015-Jun-26 00:33N 41°18' W 070°49'2 1.8
2015-Jun-25 23:33N 41°19' W 070°50'1 1.1
2015-Jun-25 22:33N 41°19' W 070°49'3 2.8
2015-Jun-25 21:33N 41°17' W 070°47'1 0.8
2015-Jun-25 20:34N 41°16' W 070°46'0 0.2
2015-Jun-25 19:34N 41°16' W 070°46'1 1.0
2015-Jun-25 18:33N 41°17' W 070°47'6 6.1
2015-Jun-25 17:33N 41°21' W 070°53'14 2.3
2015-Jun-25 11:32N 41°32' W 070°40'0 0.0
2015-Jun-25 10:26N 41°32' W 070°40'0 0.0
2015-Jun-25 09:32N 41°32' W 070°40'0 0.0
2015-Jun-25 08:32N 41°32' W 070°40'0 0.0
2015-Jun-25 06:29N 41°32' W 070°40'0 0.0
2015-Jun-25 04:17N 41°32' W 070°40'0 0.0
2015-Jun-24 05:32N 41°32' W 070°40'0 0.0
2015-Jun-24 04:32N 41°32' W 070°40'  
2015-Jun-21 09:20N 41°32' W 070°40'0 0.0
2015-Jun-21 08:32N 41°32' W 070°40'0 0.0
2015-Jun-21 07:26N 41°32' W 070°40'0 0.0
2015-Jun-20 22:29N 41°32' W 070°40'0 0.0
2015-Jun-20 21:29N 41°32' W 070°40'0 0.0
2015-Jun-20 20:32N 41°32' W 070°40'0 0.0
2015-Jun-20 19:32N 41°32' W 070°40'0 0.0
2015-Jun-20 18:32N 41°32' W 070°40'0 0.0
2015-Jun-20 17:26N 41°32' W 070°40'0 0.0
2015-Jun-20 16:32N 41°32' W 070°40'0 0.0
2015-Jun-20 15:29N 41°32' W 070°40'0 0.0
2015-Jun-20 14:32N 41°32' W 070°40'0 0.0
2015-Jun-20 13:32N 41°32' W 070°40'0 0.0
2015-Jun-20 12:32N 41°32' W 070°40'0 0.0
2015-Jun-20 11:29N 41°32' W 070°40'0 0.0
2015-Jun-20 10:29N 41°32' W 070°40'0 0.0
2015-Jun-20 09:32N 41°32' W 070°40'0 0.0
2015-Jun-20 08:32N 41°32' W 070°40'0 0.0
2015-Jun-20 07:32N 41°32' W 070°40'0 0.0
2015-Jun-20 06:32N 41°32' W 070°40'0 0.0
2015-Jun-20 05:32N 41°32' W 070°40'  
Track history (hours):
 
Tides and Currents Weather Stations Pressure Air Temp Water Temp Dewpoint Dewpoint Depression Visibility Wind Speed Wind Dir Waves Ship Positions

Oceanographic research ship Hassler (USA)

Last reported at 2015-Jun-30 02:34 UTC. Time now 2015-Jun-30 03:33 UTC.
Position N 41°08' W 070°51'.

Length 37 m; draft 3.8 m.

Type: . MMSI: 369970091.

Date/timePositionNaut miles runAvg speedWind from/ knotsBaromVisibWave heightAir tempDewpointWater temp
2015-Jun-30 02:34N 41°08' W 070°51'1 0.9
2015-Jun-30 01:33N 41°07' W 070°51'0 0.2
2015-Jun-30 00:34N 41°07' W 070°51'0 0.2
2015-Jun-29 23:34N 41°07' W 070°51'1 0.6
2015-Jun-29 22:34N 41°08' W 070°52'1 0.7
2015-Jun-29 21:34N 41°08' W 070°52'1 0.6
2015-Jun-29 20:33N 41°09' W 070°52'1 0.7
2015-Jun-29 19:34N 41°10' W 070°53'1 1.2
2015-Jun-29 18:30N 41°08' W 070°53'1 1.2
2015-Jun-29 17:33N 41°09' W 070°53'0 0.1
2015-Jun-29 16:33N 41°09' W 070°53'1 0.5
2015-Jun-29 15:33N 41°09' W 070°54'3 3.1
2015-Jun-29 14:33N 41°06' W 070°53'8 8.2
2015-Jun-29 13:33N 41°15' W 070°53'8 8.2
2015-Jun-29 12:32N 41°23' W 070°51'3 1.6
2015-Jun-29 10:27N 41°22' W 070°47'0 0.0
2015-Jun-29 09:33N 41°22' W 070°47'0 0.0
2015-Jun-29 08:33N 41°22' W 070°47'0 0.0
2015-Jun-29 07:30N 41°22' W 070°47'0 0.0
2015-Jun-29 06:21N 41°22' W 070°47'0 0.0
2015-Jun-29 05:18N 41°22' W 070°47'0 0.0
2015-Jun-29 04:21N 41°22' W 070°47'0 0.0
2015-Jun-28 17:12N 41°22' W 070°47'0 0.0
2015-Jun-28 16:33N 41°22' W 070°47'0 0.0
2015-Jun-28 12:30N 41°22' W 070°47'0 0.0
2015-Jun-28 05:06N 41°22' W 070°47'0 0.0
2015-Jun-28 04:33N 41°22' W 070°47'0 0.0
2015-Jun-28 03:33N 41°22' W 070°47'4 3.9
2015-Jun-28 02:34N 41°22' W 070°53'4 3.9
2015-Jun-28 01:33N 41°19' W 070°49'2 2.1
2015-Jun-28 00:33N 41°17' W 070°50'1 0.7
2015-Jun-27 23:33N 41°16' W 070°50'1 1.1
2015-Jun-27 22:33N 41°17' W 070°50'3 2.7
2015-Jun-27 21:34N 41°16' W 070°47'1 1.3
2015-Jun-27 20:33N 41°17' W 070°48'1 1.2
2015-Jun-27 19:33N 41°17' W 070°49'6 5.9
2015-Jun-27 18:34N 41°20' W 070°42'2 1.9
2015-Jun-27 17:33N 41°19' W 070°44'2 1.5
2015-Jun-27 16:33N 41°20' W 070°43'2 2.3
2015-Jun-27 15:33N 41°18' W 070°45'0 0.2
2015-Jun-27 14:33N 41°18' W 070°45'2 2.2
2015-Jun-27 13:33N 41°19' W 070°43'0 0.1
2015-Jun-27 12:33N 41°19' W 070°43'1 1.0
2015-Jun-27 11:33N 41°19' W 070°44'1 1.3
2015-Jun-27 10:34N 41°19' W 070°42'8 7.8
2015-Jun-27 09:33N 41°12' W 070°45'6 5.6
2015-Jun-27 08:33N 41°10' W 070°52'7 6.5
2015-Jun-27 07:33N 41°11' W 070°44'7 7.4
2015-Jun-27 06:34N 41°10' W 070°53'6 6.4
2015-Jun-27 05:33N 41°11' W 070°45'4 3.9
2015-Jun-27 04:33N 41°10' W 070°50'3 2.7
2015-Jun-27 03:33N 41°11' W 070°47'2 1.6
2015-Jun-27 02:33N 41°10' W 070°49'5 5.0
2015-Jun-27 01:33N 41°14' W 070°53'6 5.7
2015-Jun-27 00:33N 41°19' W 070°49'1 1.0
2015-Jun-26 23:33N 41°19' W 070°50'1 1.4
2015-Jun-26 22:33N 41°18' W 070°49'2 1.9
2015-Jun-26 21:34N 41°17' W 070°48'1 1.1
2015-Jun-26 20:34N 41°17' W 070°49'2 2.0
2015-Jun-26 19:33N 41°16' W 070°47'2 2.3
2015-Jun-26 18:31N 41°17' W 070°50'1 0.8
2015-Jun-26 17:33N 41°18' W 070°50'2 2.2
2015-Jun-26 16:34N 41°15' W 070°51'6 1.4
2015-Jun-26 12:33N 41°10' W 070°53'7 7.2
2015-Jun-26 11:33N 41°12' W 070°43'7 6.8
2015-Jun-26 10:33N 41°10' W 070°52'7 6.7
2015-Jun-26 09:33N 41°12' W 070°44'2 2.3
2015-Jun-26 08:33N 41°11' W 070°47'0 0.2
2015-Jun-26 07:33N 41°11' W 070°47'2 2.3
2015-Jun-26 06:33N 41°12' W 070°44'0 0.4
2015-Jun-26 05:33N 41°12' W 070°43'3 2.6
2015-Jun-26 04:33N 41°12' W 070°47'1 1.0
2015-Jun-26 03:33N 41°12' W 070°48'6 6.1
2015-Jun-26 02:33N 41°18' W 070°49'1 1.3
2015-Jun-26 01:34N 41°18' W 070°51'1 1.2
2015-Jun-26 00:33N 41°18' W 070°49'2 1.8
2015-Jun-25 23:33N 41°19' W 070°50'1 1.1
2015-Jun-25 22:33N 41°19' W 070°49'3 2.8
2015-Jun-25 21:33N 41°17' W 070°47'1 0.8
2015-Jun-25 20:34N 41°16' W 070°46'0 0.2
2015-Jun-25 19:34N 41°16' W 070°46'1 1.0
2015-Jun-25 18:33N 41°17' W 070°47'6 6.1
2015-Jun-25 17:33N 41°21' W 070°53'14 2.3
2015-Jun-25 11:32N 41°32' W 070°40'0 0.0
2015-Jun-25 10:26N 41°32' W 070°40'0 0.0
2015-Jun-25 09:32N 41°32' W 070°40'0 0.0
2015-Jun-25 08:32N 41°32' W 070°40'0 0.0
2015-Jun-25 06:29N 41°32' W 070°40'0 0.0
2015-Jun-25 04:17N 41°32' W 070°40'0 0.0
2015-Jun-24 05:32N 41°32' W 070°40'0 0.0
2015-Jun-24 04:32N 41°32' W 070°40'  
2015-Jun-21 09:20N 41°32' W 070°40'0 0.0
2015-Jun-21 08:32N 41°32' W 070°40'0 0.0
2015-Jun-21 07:26N 41°32' W 070°40'0 0.0
2015-Jun-20 22:29N 41°32' W 070°40'0 0.0
2015-Jun-20 21:29N 41°32' W 070°40'0 0.0
2015-Jun-20 20:32N 41°32' W 070°40'0 0.0
2015-Jun-20 19:32N 41°32' W 070°40'0 0.0
2015-Jun-20 18:32N 41°32' W 070°40'0 0.0
2015-Jun-20 17:26N 41°32' W 070°40'0 0.0
2015-Jun-20 16:32N 41°32' W 070°40'0 0.0
2015-Jun-20 15:29N 41°32' W 070°40'0 0.0
2015-Jun-20 14:32N 41°32' W 070°40'0 0.0
2015-Jun-20 13:32N 41°32' W 070°40'0 0.0
2015-Jun-20 12:32N 41°32' W 070°40'0 0.0
2015-Jun-20 11:29N 41°32' W 070°40'0 0.0
2015-Jun-20 10:29N 41°32' W 070°40'0 0.0
2015-Jun-20 09:32N 41°32' W 070°40'0 0.0
2015-Jun-20 08:32N 41°32' W 070°40'0 0.0
2015-Jun-20 07:32N 41°32' W 070°40'0 0.0
2015-Jun-20 06:32N 41°32' W 070°40'0 0.0
2015-Jun-20 05:32N 41°32' W 070°40'  

Dump ship's entire track history